Time;durP1;ratioP1;P1;durP2;ratioP2;P2;SDS_P1;SDS_P2;PMS_P1;PMS_P2;Temp;Humidity;BMP_temperature;BMP_pressure;BME280_temperature;BME280_humidity;BME280_pressure;Samples;Min_cycle;Max_cycle;Signal;HPM_P1;HPM_P2
2021/06/22 00:01:55;;;;;;;7.93;4.80;;;;;;;14.25;74.99;100675.50;5084535;27;20407;-50
2021/06/22 00:04:21;;;;;;;7.53;4.32;;;;;;;14.23;74.88;100669.41;5090071;27;20264;-49
2021/06/22 00:06:47;;;;;;;7.05;4.00;;;;;;;14.33;74.30;100684.97;5097247;28;20085;-52
2021/06/22 00:09:13;;;;;;;6.50;4.32;;;;;;;14.23;74.13;100685.19;5097750;27;20578;-50
2021/06/22 00:11:39;;;;;;;5.90;4.05;;;;;;;14.17;74.98;100685.28;5098202;27;20039;-50
2021/06/22 00:14:05;;;;;;;7.70;4.43;;;;;;;14.17;73.13;100687.06;5097077;28;20110;-50
2021/06/22 00:16:31;;;;;;;7.68;4.28;;;;;;;14.09;74.42;100674.06;5099838;27;20028;-50
2021/06/22 00:18:56;;;;;;;6.68;4.15;;;;;;;14.06;74.52;100676.75;5096992;27;20050;-52
2021/06/22 00:21:22;;;;;;;7.65;3.83;;;;;;;14.10;74.82;100673.16;5098064;28;20537;-49
2021/06/22 00:23:47;;;;;;;7.07;4.10;;;;;;;14.10;75.79;100673.16;5094431;28;20062;-50
2021/06/22 00:26:13;;;;;;;6.40;3.67;;;;;;;13.90;74.68;100677.03;5098977;28;20123;-49
2021/06/22 00:28:41;;;;;;;7.07;3.65;;;;;;;13.89;74.07;100664.78;5096958;27;20033;-50
2021/06/22 00:31:07;;;;;;;7.68;4.05;;;;;;;13.76;75.13;100656.28;5096915;27;20472;-50
2021/06/22 00:33:33;;;;;;;9.77;4.30;;;;;;;13.99;74.52;100651.47;5095663;28;20117;-49
2021/06/22 00:35:59;;;;;;;7.95;4.93;;;;;;;13.94;73.91;100639.28;5079172;27;20132;-52
2021/06/22 00:38:24;;;;;;;8.30;4.63;;;;;;;13.78;75.42;100637.84;5097618;28;20287;-50
2021/06/22 00:40:52;;;;;;;8.90;4.82;;;;;;;13.89;75.84;100635.03;5096520;28;20083;-48
2021/06/22 00:43:18;;;;;;;8.70;5.18;;;;;;;13.89;75.64;100638.50;5093604;28;20030;-51
2021/06/22 00:45:44;;;;;;;10.68;5.43;;;;;;;13.98;75.36;100639.22;5075914;28;20185;-49
2021/06/22 00:48:10;;;;;;;8.95;5.53;;;;;;;13.95;75.78;100651.50;5076109;28;20050;-50
2021/06/22 00:50:36;;;;;;;9.52;5.50;;;;;;;13.90;75.35;100661.28;5099345;28;20040;-51
2021/06/22 00:53:07;;;;;;;11.48;5.88;;;;;;;14.04;74.11;100673.25;5109382;27;20044;-50
2021/06/22 00:55:33;;;;;;;8.90;5.75;;;;;;;14.10;74.62;100676.66;5076420;28;20086;-49
2021/06/22 00:58:07;;;;;;;13.30;7.05;;;;;;;13.89;75.30;100671.81;5059830;28;20044;-50
2021/06/22 01:00:37;;;;;;;9.98;6.25;;;;;;;13.82;74.90;100691.19;5076461;28;20044;-49
2021/06/22 01:03:03;;;;;;;12.68;6.47;;;;;;;13.73;74.81;100700.97;5065832;28;20044;-50
2021/06/22 01:05:39;;;;;;;13.30;6.35;;;;;;;13.89;74.50;100690.22;5058315;28;20223;-51
2021/06/22 01:08:05;;;;;;;11.35;6.20;;;;;;;13.92;75.26;100685.75;5103479;27;20039;-49
2021/06/22 01:10:31;;;;;;;10.82;6.18;;;;;;;13.98;74.93;100692.66;5073947;28;20530;-50
2021/06/22 01:12:58;;;;;;;11.95;6.20;;;;;;;14.17;73.64;100687.06;5077012;28;20035;-49
2021/06/22 01:15:28;;;;;;;11.00;6.15;;;;;;;13.89;73.87;100688.44;5077006;28;20483;-49
2021/06/22 01:18:01;;;;;;;9.82;5.82;;;;;;;13.81;74.71;100668.47;5096016;28;20375;-50
2021/06/22 01:20:31;;;;;;;11.57;5.60;;;;;;;13.91;73.82;100660.34;5079427;28;20118;-49
2021/06/22 01:23:01;;;;;;;10.57;6.25;;;;;;;13.77;74.52;100659.75;5078070;28;20125;-49
2021/06/22 01:25:29;;;;;;;11.63;6.00;;;;;;;13.67;75.70;100663.44;5079723;28;20732;-49
2021/06/22 01:27:55;;;;;;;9.40;5.80;;;;;;;13.65;74.71;100667.84;5111570;27;20510;-49
2021/06/22 01:30:23;;;;;;;11.05;6.60;;;;;;;13.75;74.65;100669.44;5074467;28;20467;-49
2021/06/22 01:32:59;;;;;;;11.70;5.50;;;;;;;13.98;74.46;100673.38;5076640;28;20103;-51
2021/06/22 01:35:28;;;;;;;10.27;5.70;;;;;;;13.63;75.55;100663.47;5093811;28;20303;-49
2021/06/22 01:37:55;;;;;;;9.77;5.78;;;;;;;13.70;76.99;100660.75;5095498;28;20620;-51
2021/06/22 01:40:24;;;;;;;11.27;6.63;;;;;;;13.52;76.67;100644.41;5074282;28;20031;-50
2021/06/22 01:42:57;;;;;;;12.52;6.00;;;;;;;13.75;76.14;100651.91;5109587;27;20499;-48
2021/06/22 01:45:23;;;;;;;10.15;5.75;;;;;;;13.70;76.08;100650.25;5077437;28;20404;-52
2021/06/22 01:47:49;;;;;;;11.73;6.15;;;;;;;13.66;76.81;100643.31;5098837;27;20047;-49
2021/06/22 01:50:16;;;;;;;10.10;6.30;;;;;;;13.70;75.63;100634.50;5082619;27;20039;-51
2021/06/22 01:52:43;;;;;;;11.55;5.90;;;;;;;13.50;76.45;100637.44;5100279;27;20057;-52
2021/06/22 01:57:57;;;;;;;11.68;6.22;;;;;;;13.52;76.41;100661.94;5081192;27;20531;-50
2021/06/22 02:00:44;;;;;;;13.23;6.15;;;;;;;13.27;77.22;100652.66;5097751;27;20119;-52
2021/06/22 02:03:15;;;;;;;;;;;;;;;13.35;77.06;100652.59;5080063;28;20040;-49
2021/06/22 02:05:45;;;;;;;9.88;6.40;;;;;;;13.61;76.02;100656.53;5079715;28;20007;-50
2021/06/22 02:08:11;;;;;;;9.80;5.55;;;;;;;13.43;76.87;100662.94;5098601;27;20369;-50
2021/06/22 02:10:37;;;;;;;11.65;5.95;;;;;;;13.22;77.42;100664.13;5079272;28;20059;-49
2021/06/22 02:13:08;;;;;;;9.88;5.47;;;;;;;13.21;78.18;100673.78;5098804;27;20507;-48
2021/06/22 02:15:36;;;;;;;11.00;5.83;;;;;;;13.26;79.33;100678.94;5080151;28;20038;-49
2021/06/22 02:18:07;;;;;;;11.90;5.65;;;;;;;13.28;77.93;100675.41;5078132;28;20032;-49
2021/06/22 02:20:35;;;;;;;8.98;5.35;;;;;;;13.19;78.61;100679.94;5080978;28;20524;-50
2021/06/22 02:23:01;;;;;;;7.97;4.67;;;;;;;13.21;78.18;100679.03;5078648;28;20043;-51
2021/06/22 02:25:27;;;;;;;9.23;4.95;;;;;;;13.28;77.54;100688.53;5080630;28;20112;-51
2021/06/22 02:28:06;;;;;;;9.77;6.07;;;;;;;13.41;77.62;100685.75;5078322;28;20377;-49
2021/06/22 02:30:33;;;;;;;10.38;6.40;;;;;;;13.23;77.97;100681.63;5099560;28;20474;-49
2021/06/22 02:33:02;;;;;;;10.32;5.90;;;;;;;13.18;77.53;100684.34;5078811;28;20150;-49
2021/06/22 02:35:29;;;;;;;11.85;6.85;;;;;;;13.47;76.92;100676.91;5080258;28;20123;-50
2021/06/22 02:38:02;;;;;;;12.90;7.22;;;;;;;13.14;78.75;100672.16;5102327;27;20051;-50
2021/06/22 02:40:29;;;;;;;12.82;6.82;;;;;;;13.24;77.51;100676.34;5080777;28;20028;-50
2021/06/22 02:42:58;;;;;;;;;;;;;;;13.22;77.83;100678.16;5099472;27;20126;-49
2021/06/22 02:45:27;;;;;;;11.00;6.43;;;;;;;13.18;77.88;100679.09;5094188;28;19923;-53
2021/06/22 02:47:53;;;;;;;15.70;7.63;;;;;;;13.06;77.72;100690.63;5097836;27;20042;-51
2021/06/22 02:50:21;;;;;;;13.98;7.85;;;;;;;13.01;78.79;100689.81;5079360;28;20084;-50
2021/06/22 02:52:47;;;;;;;11.02;7.10;;;;;;;12.87;78.92;100676.03;5097545;27;20379;-52
2021/06/22 02:55:18;;;;;;;13.38;7.22;;;;;;;13.10;79.50;100683.56;5098305;27;20038;-49
2021/06/22 02:57:55;;;;;;;11.30;6.72;;;;;;;13.09;78.67;100685.31;5097807;27;20040;-49
2021/06/22 03:00:24;;;;;;;10.80;6.72;;;;;;;13.37;77.70;100689.31;5093984;27;21086;-49
2021/06/22 03:02:52;;;;;;;12.50;6.78;;;;;;;13.24;77.07;100693.88;5096413;27;20040;-50
2021/06/22 03:05:18;;;;;;;10.20;6.50;;;;;;;13.24;76.63;100694.72;5076163;28;20073;-49
2021/06/22 03:07:47;;;;;;;9.73;6.05;;;;;;;13.18;77.78;100689.59;5096287;27;20043;-51
2021/06/22 03:10:15;;;;;;;11.15;7.43;;;;;;;13.26;76.95;100689.44;5099756;28;20032;-49
2021/06/22 03:12:42;;;;;;;11.27;6.70;;;;;;;12.98;77.56;100682.00;5092888;28;20122;-50
2021/06/22 03:15:25;;;;;;;9.43;6.40;;;;;;;13.08;76.74;100687.97;5098880;27;20538;-50
2021/06/22 03:17:52;;;;;;;12.13;6.82;;;;;;;12.87;79.09;100689.16;5098370;27;20040;-49
2021/06/22 03:20:22;;;;;;;10.63;7.05;;;;;;;12.85;77.55;100690.91;5111462;27;20044;-50
2021/06/22 03:22:49;;;;;;;17.77;8.10;;;;;;;12.98;77.16;100699.50;5115073;27;20106;-49
2021/06/22 03:25:15;;;;;;;13.18;7.07;;;;;;;13.26;76.64;100698.22;5079409;28;20042;-50
2021/06/22 03:27:51;;;;;;;14.52;8.95;;;;;;;13.14;76.82;100693.13;5099324;27;20035;-50
2021/06/22 03:30:44;;;;;;;15.95;9.15;;;;;;;13.16;77.29;100691.34;5083215;28;20579;-49
2021/06/22 03:33:10;;;;;;;14.57;8.38;;;;;;;13.00;77.30;100685.47;5098605;27;20708;-49
2021/06/22 03:35:38;;;;;;;14.15;8.45;;;;;;;13.24;77.02;100692.09;5095263;28;20394;-50
2021/06/22 03:38:04;;;;;;;14.70;7.90;;;;;;;13.20;76.39;100697.44;5097787;27;20415;-51
2021/06/22 03:40:30;;;;;;;18.77;9.73;;;;;;;13.05;76.71;100686.25;5095734;28;20049;-49
2021/06/22 03:42:56;;;;;;;17.65;9.52;;;;;;;13.03;77.64;100700.28;5080794;28;20020;-49
2021/06/22 03:45:24;;;;;;;18.35;9.10;;;;;;;13.13;76.44;100693.16;5096409;28;20043;-49
2021/06/22 03:47:51;;;;;;;17.38;9.25;;;;;;;12.93;77.32;100689.94;5094510;28;20067;-50
2021/06/22 03:50:17;;;;;;;17.77;9.73;;;;;;;13.02;77.08;100696.81;5064710;28;20036;-50
2021/06/22 03:52:44;;;;;;;16.08;9.70;;;;;;;12.87;77.40;100707.50;5100071;28;20036;-51
2021/06/22 03:55:31;;;;;;;17.67;9.90;;;;;;;13.09;77.03;100706.31;5112858;27;20110;-50
2021/06/22 03:58:06;;;;;;;18.45;9.82;;;;;;;12.95;78.17;100724.88;5099083;28;20518;-50
2021/06/22 04:00:39;;;;;;;15.73;9.20;;;;;;;12.91;76.90;100717.94;5098885;27;20065;-50
2021/06/22 04:03:14;;;;;;;15.98;9.30;;;;;;;13.02;76.58;100719.56;5093120;28;20058;-49
2021/06/22 04:06:05;;;;;;;15.00;9.40;;;;;;;12.73;77.82;100710.31;5076842;28;20068;-49
2021/06/22 04:08:31;;;;;;;15.82;7.72;;;;;;;13.13;75.80;100712.41;5076097;28;20427;-50
2021/06/22 04:11:03;;;;;;;12.55;7.70;;;;;;;12.79;77.25;100712.84;5042501;28;20047;-49
2021/06/22 04:13:28;;;;;;;11.20;6.72;;;;;;;12.85;76.80;100719.78;5060087;28;20028;-52
2021/06/22 04:15:57;;;;;;;8.10;4.88;;;;;;;12.75;76.45;100712.03;5062061;28;21014;-50
2021/06/22 04:18:23;;;;;;;8.00;4.88;;;;;;;12.95;76.17;100718.78;5076650;28;20078;-51
2021/06/22 04:20:50;;;;;;;7.57;4.05;;;;;;;13.07;75.67;100730.84;5075637;28;20060;-50
2021/06/22 04:23:18;;;;;;;7.20;4.40;;;;;;;12.78;76.81;100726.88;5094305;27;20120;-49
2021/06/22 04:25:44;;;;;;;8.65;4.20;;;;;;;12.71;76.76;100726.09;5076600;28;20043;-48
2021/06/22 04:28:11;;;;;;;6.28;3.45;;;;;;;12.83;76.55;100746.03;5079288;28;20476;-49
2021/06/22 04:30:38;;;;;;;6.82;3.67;;;;;;;13.01;75.62;100746.69;5094976;28;20049;-51
2021/06/22 04:33:05;;;;;;;6.15;3.28;;;;;;;12.84;78.36;100745.16;5095839;28;23793;-49
2021/06/22 04:35:32;;;;;;;6.63;3.30;;;;;;;12.74;77.90;100752.28;5092905;28;20049;-49
2021/06/22 04:37:59;;;;;;;6.85;3.20;;;;;;;13.03;75.58;100745.78;5079317;28;20036;-49
2021/06/22 04:40:24;;;;;;;6.93;3.00;;;;;;;12.77;77.17;100749.59;5091173;28;20057;-52
2021/06/22 04:42:50;;;;;;;7.63;3.58;;;;;;;12.76;77.58;100741.75;5092668;28;20044;-47
2021/06/22 04:45:16;;;;;;;4.60;2.90;;;;;;;12.80;77.57;100747.84;5091621;27;20477;-48
2021/06/22 04:47:41;;;;;;;5.78;3.05;;;;;;;12.83;76.67;100742.56;5090046;28;20068;-49
2021/06/22 04:50:08;;;;;;;5.25;3.42;;;;;;;13.13;76.32;100749.16;5092433;28;20039;-52
2021/06/22 04:52:34;;;;;;;6.05;3.25;;;;;;;12.92;76.60;100738.03;5093462;27;20259;-50
2021/06/22 04:54:59;;;;;;;5.90;3.40;;;;;;;12.96;77.16;100736.25;5073886;28;20059;-48
2021/06/22 04:57:25;;;;;;;7.13;4.13;;;;;;;13.03;77.04;100743.16;5072988;27;20043;-47
2021/06/22 04:59:51;;;;;;;5.80;3.42;;;;;;;12.94;77.47;100740.66;5091834;28;20043;-49
2021/06/22 05:02:17;;;;;;;6.35;3.40;;;;;;;12.93;76.95;100741.53;5037925;28;20433;-49
2021/06/22 05:04:43;;;;;;;5.35;2.85;;;;;;;12.87;77.28;100760.84;5094570;28;20044;-50
2021/06/22 05:07:09;;;;;;;5.90;3.55;;;;;;;13.16;77.18;100762.22;5095149;28;20023;-50
2021/06/22 05:09:35;;;;;;;7.30;3.05;;;;;;;13.03;76.55;100758.00;5095565;28;20040;-48
2021/06/22 05:12:00;;;;;;;6.60;3.60;;;;;;;12.91;77.49;100754.66;5076600;28;20247;-49
2021/06/22 05:14:26;;;;;;;4.63;2.95;;;;;;;12.93;77.99;100747.66;5092282;28;20043;-49
2021/06/22 05:16:52;;;;;;;7.20;3.63;;;;;;;12.92;77.21;100750.31;5092841;28;20339;-50
2021/06/22 05:19:18;;;;;;;7.57;3.47;;;;;;;13.25;75.02;100756.84;5093699;28;20023;-49
2021/06/22 05:21:44;;;;;;;6.22;3.47;;;;;;;13.06;76.27;100758.00;5080477;28;20039;-49
2021/06/22 05:24:10;;;;;;;6.90;3.22;;;;;;;13.08;75.99;100762.34;5074715;28;20035;-51
2021/06/22 05:26:36;;;;;;;6.93;3.70;;;;;;;13.02;75.57;100766.78;5079263;28;20381;-48
2021/06/22 05:29:02;;;;;;;7.15;3.38;;;;;;;12.96;78.97;100762.50;5060885;28;20096;-50
2021/06/22 05:31:28;;;;;;;6.32;3.40;;;;;;;12.90;78.71;100773.06;5079401;28;20126;-50
2021/06/22 05:33:55;;;;;;;7.75;3.28;;;;;;;12.99;77.34;100777.31;5078145;28;20586;-50
2021/06/22 05:36:21;;;;;;;6.20;3.20;;;;;;;13.00;76.38;100779.06;5091378;28;20040;-49
2021/06/22 05:38:47;;;;;;;6.40;3.60;;;;;;;12.93;75.68;100779.16;5098934;27;20059;-52
2021/06/22 05:41:15;;;;;;;8.75;3.50;;;;;;;13.03;78.12;100779.00;5076489;28;20048;-48
2021/06/22 05:43:41;;;;;;;6.93;3.22;;;;;;;12.98;75.63;100779.06;5097118;28;20499;-48
2021/06/22 05:46:07;;;;;;;6.13;3.45;;;;;;;12.86;77.22;100769.63;5061103;27;20031;-50
2021/06/22 05:48:33;;;;;;;7.30;3.45;;;;;;;12.93;76.78;100763.41;5099657;27;20543;-48
2021/06/22 05:50:59;;;;;;;6.82;3.72;;;;;;;12.95;78.60;100758.13;5053973;28;20052;-51
2021/06/22 05:53:25;;;;;;;7.13;4.20;;;;;;;12.88;77.13;100762.59;5074238;28;20201;-50
2021/06/22 05:55:50;;;;;;;8.98;3.50;;;;;;;12.90;78.42;100779.19;5074125;28;20047;-51
2021/06/22 05:58:16;;;;;;;7.28;3.63;;;;;;;13.09;79.67;100778.94;5090510;27;20703;-49
2021/06/22 06:00:42;;;;;;;10.23;4.10;;;;;;;12.98;79.08;100784.31;5086486;28;20052;-51
2021/06/22 06:03:08;;;;;;;6.47;4.00;;;;;;;12.92;79.59;100785.28;5080747;27;20442;-50
2021/06/22 06:05:34;;;;;;;6.78;4.22;;;;;;;13.24;78.96;100789.22;5078108;27;20036;-49
2021/06/22 06:08:00;;;;;;;6.32;4.00;;;;;;;12.95;78.44;100781.75;5097731;27;20475;-50
2021/06/22 06:10:26;;;;;;;7.93;4.60;;;;;;;12.89;80.88;100782.69;5096941;28;20482;-52
2021/06/22 06:12:52;;;;;;;6.93;4.32;;;;;;;12.85;80.37;100783.63;5077061;28;20111;-49
2021/06/22 06:15:19;;;;;;;10.82;5.20;;;;;;;12.78;80.80;100784.59;5098150;28;20035;-50
2021/06/22 06:17:47;;;;;;;10.13;5.45;;;;;;;12.77;81.33;100786.31;5095565;27;20663;-51
2021/06/22 06:20:14;;;;;;;7.78;4.80;;;;;;;12.80;80.45;100782.81;5076496;28;20540;-52
2021/06/22 06:22:41;;;;;;;7.72;5.18;;;;;;;13.02;79.07;100782.53;5077098;27;21610;-51
2021/06/22 06:25:09;;;;;;;7.35;4.82;;;;;;;12.90;79.68;100768.69;5074735;28;20039;-50
2021/06/22 06:27:47;;;;;;;8.95;5.07;;;;;;;12.95;80.63;100761.63;5076886;27;20047;-49
2021/06/22 06:30:17;;;;;;;9.38;4.90;;;;;;;13.06;80.24;100771.13;5060989;28;20062;-48
2021/06/22 06:32:47;;;;;;;7.07;4.95;;;;;;;13.05;80.30;100766.75;5078236;27;20411;-52
2021/06/22 06:35:15;;;;;;;8.00;4.50;;;;;;;13.08;76.27;100778.09;5092543;27;20048;-49
2021/06/22 06:37:41;;;;;;;8.50;4.70;;;;;;;13.23;76.10;100782.22;5096371;27;20398;-50
2021/06/22 06:40:08;;;;;;;7.93;4.95;;;;;;;13.11;77.92;100783.28;5094915;28;20539;-51
2021/06/22 06:42:34;;;;;;;7.25;4.78;;;;;;;13.12;77.59;100792.03;5092640;28;20039;-50
2021/06/22 06:45:00;;;;;;;9.85;4.57;;;;;;;13.18;77.78;100794.56;5095027;27;20503;-50
2021/06/22 06:47:25;;;;;;;8.77;4.82;;;;;;;13.53;75.31;100803.75;5094052;27;20063;-49
2021/06/22 06:49:51;;;;;;;8.25;5.47;;;;;;;13.49;75.63;100799.41;5095911;27;20044;-49
2021/06/22 06:52:17;;;;;;;10.05;5.00;;;;;;;13.26;78.52;100805.84;5078793;28;20159;-52
2021/06/22 06:54:43;;;;;;;8.80;5.15;;;;;;;13.13;78.05;100808.66;5072105;28;20044;-50
2021/06/22 06:57:08;;;;;;;10.82;5.25;;;;;;;13.00;78.47;100806.19;5092521;27;20096;-52
2021/06/22 06:59:34;;;;;;;7.78;5.05;;;;;;;13.05;78.19;100824.50;5062367;28;20043;-48
2021/06/22 07:02:01;;;;;;;9.50;5.05;;;;;;;13.02;79.17;100827.16;5095600;27;20035;-51
2021/06/22 07:04:26;;;;;;;8.25;5.47;;;;;;;13.07;78.94;100833.19;5071533;27;20681;-49
2021/06/22 07:06:52;;;;;;;9.95;5.95;;;;;;;13.09;78.98;100836.69;5095706;27;20130;-52
2021/06/22 07:09:18;;;;;;;8.93;5.00;;;;;;;13.06;78.96;100834.09;5093267;27;20046;-51
2021/06/22 07:11:43;;;;;;;9.52;6.13;;;;;;;13.13;79.52;100832.28;5093770;28;20604;-52
2021/06/22 07:14:13;;;;;;;11.27;6.20;;;;;;;13.07;78.02;100823.59;5093607;28;20082;-52
2021/06/22 07:16:39;;;;;;;9.48;5.97;;;;;;;13.19;77.40;100822.53;5075713;28;20158;-51
2021/06/22 07:19:05;;;;;;;9.93;5.95;;;;;;;13.22;77.60;100835.66;5096384;28;20076;-51
2021/06/22 07:21:31;;;;;;;11.13;5.85;;;;;;;13.28;79.11;100835.56;5093028;27;20814;-49
2021/06/22 07:23:57;;;;;;;8.48;6.45;;;;;;;13.37;76.62;100836.34;5070167;28;20038;-48
2021/06/22 07:26:22;;;;;;;11.82;6.38;;;;;;;13.15;77.55;100844.47;5075806;28;20039;-49
2021/06/22 07:28:48;;;;;;;13.63;8.60;;;;;;;13.18;77.16;100831.34;5096052;28;20047;-51
2021/06/22 07:31:14;;;;;;;9.05;6.82;;;;;;;13.13;79.16;100830.50;5095113;28;20051;-48
2021/06/22 07:33:40;;;;;;;11.70;7.13;;;;;;;13.06;77.91;100828.84;5094476;28;20041;-49
2021/06/22 07:36:07;;;;;;;10.05;6.38;;;;;;;13.08;78.87;100827.97;5077390;28;20118;-50
2021/06/22 07:38:33;;;;;;;9.98;6.82;;;;;;;13.09;78.25;100826.19;5077529;28;20448;-50
2021/06/22 07:40:58;;;;;;;13.43;7.18;;;;;;;13.01;79.20;100833.28;5093277;27;20079;-53
2021/06/22 07:43:24;;;;;;;9.60;6.07;;;;;;;13.19;78.03;100827.78;5089882;28;20191;-52
2021/06/22 07:45:50;;;;;;;11.30;6.53;;;;;;;13.07;80.21;100839.34;5093525;27;20045;-49
2021/06/22 07:48:16;;;;;;;9.55;6.43;;;;;;;13.11;78.87;100838.41;5078133;27;20032;-49
2021/06/22 07:50:42;;;;;;;14.77;7.20;;;;;;;13.13;82.37;100838.38;5093170;28;20044;-50
2021/06/22 07:53:08;;;;;;;9.43;6.30;;;;;;;13.13;78.66;100838.38;5074301;28;20039;-49
2021/06/22 07:55:35;;;;;;;11.55;6.65;;;;;;;13.18;78.59;100840.94;5092934;28;20457;-50
2021/06/22 07:58:01;;;;;;;10.35;5.93;;;;;;;13.34;79.07;100846.88;5093608;27;20027;-52
2021/06/22 08:03:07;;;;;;;9.65;5.93;;;;;;;13.34;77.83;100841.63;5092568;27;20094;-48
2021/06/22 08:05:34;;;;;;;9.15;6.00;;;;;;;13.57;76.16;100842.19;5080542;28;20523;-49
2021/06/22 08:08:00;;;;;;;10.50;5.85;;;;;;;13.58;76.05;100846.56;5072884;28;20046;-48
2021/06/22 08:10:26;;;;;;;9.63;5.00;;;;;;;13.45;79.23;100839.75;5092535;28;20152;-49
2021/06/22 08:12:54;;;;;;;11.18;5.43;;;;;;;13.40;79.19;100836.31;5073053;28;20440;-52
2021/06/22 08:15:20;;;;;;;10.90;5.78;;;;;;;13.60;78.50;100839.53;5094373;28;20046;-51
2021/06/22 08:17:45;;;;;;;10.10;5.53;;;;;;;13.57;78.11;100831.69;5075180;28;20051;-50
2021/06/22 08:20:12;;;;;;;10.13;5.38;;;;;;;13.57;79.01;100828.22;5077475;28;20044;-52
2021/06/22 08:22:38;;;;;;;9.95;5.35;;;;;;;13.78;76.76;100829.66;5107586;27;20042;-52
2021/06/22 08:25:07;;;;;;;12.00;5.90;;;;;;;13.99;75.58;100835.47;5062781;28;20031;-52
2021/06/22 08:27:33;;;;;;;10.32;4.70;;;;;;;13.71;78.11;100842.00;5060923;27;20044;-50
2021/06/22 08:29:58;;;;;;;7.82;4.97;;;;;;;13.68;77.46;100835.91;5095027;27;20082;-48
2021/06/22 08:32:24;;;;;;;7.75;4.75;;;;;;;14.05;74.76;100836.22;5076712;28;20130;-50
2021/06/22 08:34:50;;;;;;;8.63;4.80;;;;;;;14.12;76.96;100836.97;5073085;28;20556;-49
2021/06/22 08:37:16;;;;;;;8.88;4.47;;;;;;;14.53;70.90;100830.13;5095197;27;20307;-48
2021/06/22 08:39:42;;;;;;;9.15;4.63;;;;;;;14.39;72.88;100826.88;5095237;27;20044;-52
2021/06/22 08:42:10;;;;;;;7.70;4.78;;;;;;;14.17;73.24;100823.78;5093095;28;20398;-51
2021/06/22 08:44:38;;;;;;;7.97;5.10;;;;;;;14.05;71.69;100820.47;5075276;28;20116;-49
2021/06/22 08:47:04;;;;;;;10.00;4.60;;;;;;;14.22;72.52;100820.16;5093150;27;20043;-51
2021/06/22 08:49:36;;;;;;;7.05;4.30;;;;;;;14.12;73.51;100819.47;5092111;28;20064;-50
2021/06/22 08:52:02;;;;;;;8.50;5.35;;;;;;;14.14;75.10;100820.28;5068870;28;20031;-50
2021/06/22 08:54:29;;;;;;;8.00;4.75;;;;;;;14.26;72.22;100821.84;5091517;28;20372;-54
2021/06/22 08:56:56;;;;;;;8.75;4.75;;;;;;;14.29;72.40;100813.91;5074466;28;20483;-50
2021/06/22 08:59:22;;;;;;;8.10;4.55;;;;;;;14.29;72.06;100807.78;5094081;28;20365;-53
2021/06/22 09:01:48;;;;;;;7.05;4.70;;;;;;;14.29;72.88;100815.66;5076331;28;20104;-51
2021/06/22 09:04:16;;;;;;;7.47;4.80;;;;;;;14.33;73.40;100816.47;5094586;28;20043;-50
2021/06/22 09:06:47;;;;;;;9.48;5.05;;;;;;;14.45;72.29;100821.50;5073240;28;20830;-48
2021/06/22 09:09:13;;;;;;;8.25;4.90;;;;;;;14.60;72.93;100828.25;5071885;28;20172;-50
2021/06/22 09:11:39;;;;;;;9.93;5.63;;;;;;;14.73;72.06;100828.91;5094559;28;20028;-53
2021/06/22 09:14:06;;;;;;;8.77;5.55;;;;;;;14.66;72.23;100822.88;5074328;28;20055;-49
2021/06/22 09:16:33;;;;;;;10.27;5.53;;;;;;;14.76;71.48;100831.47;5092784;28;20036;-48
2021/06/22 09:19:13;;;;;;;8.55;5.53;;;;;;;14.84;72.21;100826.94;5110132;27;20069;-50
2021/06/22 09:21:45;;;;;;;6.45;4.63;;;;;;;15.00;70.17;100826.66;5075955;28;20032;-50
2021/06/22 09:24:24;;;;;;;7.80;4.78;;;;;;;14.80;71.02;100828.78;5071079;28;20035;-51
2021/06/22 09:26:52;;;;;;;6.85;4.38;;;;;;;15.09;69.13;100829.94;5092932;28;20040;-49
2021/06/22 09:29:20;;;;;;;7.82;4.30;;;;;;;14.93;70.24;100842.53;5059312;28;20044;-48
2021/06/22 09:31:58;;;;;;;7.90;3.80;;;;;;;15.16;68.52;100833.31;5092591;28;20407;-49
2021/06/22 09:34:25;;;;;;;8.30;4.43;;;;;;;15.05;69.87;100840.56;5092165;28;20031;-54
2021/06/22 09:36:56;;;;;;;6.88;3.80;;;;;;;15.33;66.93;100839.06;5059516;28;20449;-49
2021/06/22 09:39:27;;;;;;;5.45;3.58;;;;;;;15.35;66.45;100841.69;5091017;28;20529;-51
2021/06/22 09:41:56;;;;;;;5.93;4.18;;;;;;;15.05;70.11;100845.81;5073686;28;20554;-50
2021/06/22 09:44:24;;;;;;;7.30;3.70;;;;;;;14.95;70.83;100853.94;5092151;28;20382;-49
2021/06/22 09:46:54;;;;;;;9.63;4.10;;;;;;;15.12;70.26;100853.56;5076089;28;20491;-53
2021/06/22 09:49:21;;;;;;;7.45;4.10;;;;;;;14.93;69.64;100854.84;5092407;28;20560;-51
2021/06/22 09:51:56;;;;;;;6.43;3.53;;;;;;;15.18;68.89;100857.84;5092319;28;20036;-51
2021/06/22 09:54:27;;;;;;;7.93;3.70;;;;;;;15.34;67.83;100863.66;5090220;28;20052;-53
2021/06/22 09:56:54;;;;;;;6.22;3.55;;;;;;;14.95;70.58;100850.41;5095187;28;20040;-51
2021/06/22 09:59:20;;;;;;;6.35;3.70;;;;;;;14.79;71.56;100849.84;5097493;27;20040;-50
2021/06/22 10:01:46;;;;;;;5.88;3.30;;;;;;;14.83;72.27;100851.53;5090041;28;20348;-51
2021/06/22 10:04:23;;;;;;;6.28;3.58;;;;;;;14.85;73.07;100841.81;5076787;28;20036;-49
2021/06/22 10:06:52;;;;;;;7.00;3.20;;;;;;;15.32;68.75;100845.25;5092751;28;20445;-53
2021/06/22 10:09:20;;;;;;;6.88;3.63;;;;;;;15.58;66.96;100835.06;5066756;28;20035;-49
2021/06/22 10:11:46;;;;;;;8.18;4.43;;;;;;;15.25;70.49;100838.38;5096301;27;20058;-49
2021/06/22 10:14:27;;;;;;;4.85;3.08;;;;;;;15.48;68.03;100842.28;5097839;27;20241;-52
2021/06/22 10:16:55;;;;;;;5.55;3.40;;;;;;;15.49;68.91;100828.19;5095984;28;20042;-50
2021/06/22 10:19:22;;;;;;;6.93;3.35;;;;;;;15.70;69.19;100832.13;5083198;28;20043;-52
2021/06/22 10:21:49;;;;;;;5.70;3.45;;;;;;;15.54;68.98;100823.69;5100957;28;20769;-49
2021/06/22 10:24:15;;;;;;;5.97;3.83;;;;;;;15.57;68.34;100831.53;5077598;28;20219;-51
2021/06/22 10:26:42;;;;;;;5.30;3.50;;;;;;;15.62;65.12;100826.19;5100311;28;20058;-51
2021/06/22 10:29:11;;;;;;;5.45;3.58;;;;;;;15.58;65.40;100832.41;5098218;27;20054;-52
2021/06/22 10:31:36;;;;;;;6.43;3.45;;;;;;;15.42;65.91;100823.97;5100270;27;20487;-52
2021/06/22 10:34:02;;;;;;;6.22;3.42;;;;;;;15.59;68.92;100827.09;5067542;28;20035;-52
2021/06/22 10:36:34;;;;;;;6.05;3.50;;;;;;;16.02;66.74;100832.28;5059517;28;20132;-53
2021/06/22 10:39:13;;;;;;;6.22;3.22;;;;;;;15.93;65.86;100828.97;5098779;28;20075;-53
2021/06/22 10:41:41;;;;;;;7.53;3.10;;;;;;;15.74;68.64;100828.53;5080936;28;20035;-53
2021/06/22 10:44:34;;;;;;;8.18;3.70;;;;;;;16.13;67.11;100833.75;5080211;28;20043;-51
2021/06/22 10:47:27;;;;;;;7.57;4.20;;;;;;;16.14;65.63;100839.88;5089401;27;20050;-52
2021/06/22 10:50:16;;;;;;;7.38;3.53;;;;;;;16.21;67.17;100830.91;5078671;28;20055;-50
2021/06/22 10:52:42;;;;;;;5.68;4.00;;;;;;;16.33;63.03;100825.31;5097040;28;20039;-49
2021/06/22 10:55:18;;;;;;;9.15;3.90;;;;;;;16.46;63.52;100830.28;5097780;27;20496;-48
2021/06/22 10:57:54;;;;;;;6.95;3.40;;;;;;;16.50;61.39;100835.44;5097720;27;20170;-50
2021/06/22 11:00:20;;;;;;;8.02;4.10;;;;;;;16.15;65.03;100839.84;5097869;27;20455;-50
2021/06/22 11:02:58;;;;;;;7.50;3.95;;;;;;;16.07;63.62;100833.88;5077468;27;20045;-49
2021/06/22 11:05:34;;;;;;;9.13;4.38;;;;;;;16.16;64.58;100838.94;5074151;28;20495;-50
2021/06/22 11:08:15;;;;;;;6.60;4.25;;;;;;;16.09;64.18;100837.38;5097414;27;20040;-50
2021/06/22 11:10:41;;;;;;;7.55;4.18;;;;;;;16.01;64.89;100841.97;5095281;27;20511;-50
2021/06/22 11:13:07;;;;;;;6.78;4.40;;;;;;;16.08;64.68;100840.06;5097771;27;20127;-50
2021/06/22 11:15:51;;;;;;;6.38;4.18;;;;;;;16.32;63.51;100844.72;5082884;28;20035;-50
2021/06/22 11:18:18;;;;;;;6.15;3.88;;;;;;;16.59;63.32;100841.38;5079735;28;20047;-53
2021/06/22 11:20:45;;;;;;;6.57;3.60;;;;;;;16.37;66.50;100843.72;5093502;28;20530;-49
2021/06/22 11:23:21;;;;;;;7.40;3.85;;;;;;;16.77;62.57;100845.28;5099354;28;20046;-51
2021/06/22 11:25:52;;;;;;;7.13;4.53;;;;;;;16.47;64.09;100846.06;5095140;28;20608;-50
2021/06/22 11:28:24;;;;;;;6.35;4.25;;;;;;;16.58;64.48;100837.00;5081104;28;20047;-50
2021/06/22 11:30:56;;;;;;;6.97;4.32;;;;;;;16.40;65.60;100846.28;5095291;27;20038;-50
2021/06/22 11:33:28;;;;;;;7.20;4.88;;;;;;;16.43;65.09;100851.47;5098089;27;20031;-52
2021/06/22 11:36:21;;;;;;;8.55;5.32;;;;;;;16.39;66.02;100855.09;5085404;27;20050;-50